sensor_id;sensor_type;location;lat;lon;timestamp;P1;durP1;ratioP1;P2;durP2;ratioP2
10894;SDS011;5500;49.886;8.074;2022-08-25T00:00:11;9.40;;;2.10;;
10894;SDS011;5500;49.886;8.074;2022-08-25T00:02:40;3.73;;;2.40;;
10894;SDS011;5500;49.886;8.074;2022-08-25T00:05:23;8.20;;;2.30;;
10894;SDS011;5500;49.886;8.074;2022-08-25T00:07:55;5.27;;;2.40;;
10894;SDS011;5500;49.886;8.074;2022-08-25T00:10:23;9.10;;;2.37;;
10894;SDS011;5500;49.886;8.074;2022-08-25T00:12:51;3.23;;;2.03;;
10894;SDS011;5500;49.886;8.074;2022-08-25T00:15:19;4.83;;;2.00;;
10894;SDS011;5500;49.886;8.074;2022-08-25T00:17:47;2.83;;;2.00;;
10894;SDS011;5500;49.886;8.074;2022-08-25T00:20:15;6.07;;;2.10;;
10894;SDS011;5500;49.886;8.074;2022-08-25T00:22:43;4.63;;;2.10;;
10894;SDS011;5500;49.886;8.074;2022-08-25T00:25:12;5.13;;;2.53;;
10894;SDS011;5500;49.886;8.074;2022-08-25T00:27:40;5.57;;;2.13;;
10894;SDS011;5500;49.886;8.074;2022-08-25T00:30:11;6.13;;;2.30;;
10894;SDS011;5500;49.886;8.074;2022-08-25T00:32:41;4.77;;;1.90;;
10894;SDS011;5500;49.886;8.074;2022-08-25T00:35:22;3.47;;;2.07;;
10894;SDS011;5500;49.886;8.074;2022-08-25T00:37:49;4.67;;;2.27;;
10894;SDS011;5500;49.886;8.074;2022-08-25T00:40:19;6.07;;;2.40;;
10894;SDS011;5500;49.886;8.074;2022-08-25T00:42:47;7.57;;;2.20;;
10894;SDS011;5500;49.886;8.074;2022-08-25T00:45:15;4.03;;;1.93;;
10894;SDS011;5500;49.886;8.074;2022-08-25T00:47:43;4.17;;;2.63;;
10894;SDS011;5500;49.886;8.074;2022-08-25T00:50:11;7.03;;;3.03;;
10894;SDS011;5500;49.886;8.074;2022-08-25T00:52:40;3.13;;;2.20;;
10894;SDS011;5500;49.886;8.074;2022-08-25T00:55:10;8.40;;;2.57;;
10894;SDS011;5500;49.886;8.074;2022-08-25T00:57:43;3.63;;;2.20;;
10894;SDS011;5500;49.886;8.074;2022-08-25T01:00:15;2.27;;;2.07;;
10894;SDS011;5500;49.886;8.074;2022-08-25T01:02:47;6.40;;;2.23;;
10894;SDS011;5500;49.886;8.074;2022-08-25T01:05:16;3.63;;;2.27;;
10894;SDS011;5500;49.886;8.074;2022-08-25T01:07:44;4.43;;;2.20;;
10894;SDS011;5500;49.886;8.074;2022-08-25T01:10:12;2.50;;;2.30;;
10894;SDS011;5500;49.886;8.074;2022-08-25T01:12:40;8.67;;;2.53;;
10894;SDS011;5500;49.886;8.074;2022-08-25T01:15:10;3.30;;;2.47;;
10894;SDS011;5500;49.886;8.074;2022-08-25T01:17:44;4.37;;;2.13;;
10894;SDS011;5500;49.886;8.074;2022-08-25T01:20:12;4.63;;;2.30;;
10894;SDS011;5500;49.886;8.074;2022-08-25T01:22:42;4.57;;;2.30;;
10894;SDS011;5500;49.886;8.074;2022-08-25T01:25:19;6.93;;;2.20;;
10894;SDS011;5500;49.886;8.074;2022-08-25T01:27:53;6.30;;;2.60;;
10894;SDS011;5500;49.886;8.074;2022-08-25T01:30:21;5.53;;;1.93;;
10894;SDS011;5500;49.886;8.074;2022-08-25T01:32:49;7.63;;;2.30;;
10894;SDS011;5500;49.886;8.074;2022-08-25T01:35:16;4.20;;;2.33;;
10894;SDS011;5500;49.886;8.074;2022-08-25T01:37:45;4.13;;;2.47;;
10894;SDS011;5500;49.886;8.074;2022-08-25T01:40:13;4.60;;;2.10;;
10894;SDS011;5500;49.886;8.074;2022-08-25T01:42:46;6.73;;;2.53;;
10894;SDS011;5500;49.886;8.074;2022-08-25T01:45:19;2.43;;;2.23;;
10894;SDS011;5500;49.886;8.074;2022-08-25T01:47:47;7.23;;;2.53;;
10894;SDS011;5500;49.886;8.074;2022-08-25T01:50:15;4.03;;;2.10;;
10894;SDS011;5500;49.886;8.074;2022-08-25T01:52:49;4.03;;;2.10;;
10894;SDS011;5500;49.886;8.074;2022-08-25T01:55:18;6.43;;;2.20;;
10894;SDS011;5500;49.886;8.074;2022-08-25T01:57:46;4.60;;;2.03;;
10894;SDS011;5500;49.886;8.074;2022-08-25T02:00:14;7.57;;;2.83;;
10894;SDS011;5500;49.886;8.074;2022-08-25T02:02:42;2.40;;;2.20;;
10894;SDS011;5500;49.886;8.074;2022-08-25T02:05:11;6.03;;;2.70;;
10894;SDS011;5500;49.886;8.074;2022-08-25T02:07:48;5.80;;;2.40;;
10894;SDS011;5500;49.886;8.074;2022-08-25T02:10:15;4.93;;;2.47;;
10894;SDS011;5500;49.886;8.074;2022-08-25T02:12:43;4.97;;;2.50;;
10894;SDS011;5500;49.886;8.074;2022-08-25T02:15:11;6.70;;;2.30;;
10894;SDS011;5500;49.886;8.074;2022-08-25T02:17:39;4.50;;;2.43;;
10894;SDS011;5500;49.886;8.074;2022-08-25T02:20:07;3.70;;;2.47;;
10894;SDS011;5500;49.886;8.074;2022-08-25T02:22:35;2.23;;;2.00;;
10894;SDS011;5500;49.886;8.074;2022-08-25T02:25:07;3.63;;;2.40;;
10894;SDS011;5500;49.886;8.074;2022-08-25T02:27:35;3.43;;;2.40;;
10894;SDS011;5500;49.886;8.074;2022-08-25T02:30:03;5.47;;;2.70;;
10894;SDS011;5500;49.886;8.074;2022-08-25T02:32:32;3.30;;;2.33;;
10894;SDS011;5500;49.886;8.074;2022-08-25T02:35:00;6.70;;;2.33;;
10894;SDS011;5500;49.886;8.074;2022-08-25T02:37:27;4.00;;;2.33;;
10894;SDS011;5500;49.886;8.074;2022-08-25T02:39:55;5.40;;;2.90;;
10894;SDS011;5500;49.886;8.074;2022-08-25T02:42:24;4.10;;;2.63;;
10894;SDS011;5500;49.886;8.074;2022-08-25T02:44:52;5.43;;;2.60;;
10894;SDS011;5500;49.886;8.074;2022-08-25T02:47:20;3.00;;;2.40;;
10894;SDS011;5500;49.886;8.074;2022-08-25T02:49:52;4.70;;;2.97;;
10894;SDS011;5500;49.886;8.074;2022-08-25T02:52:20;4.70;;;2.80;;
10894;SDS011;5500;49.886;8.074;2022-08-25T02:54:48;5.63;;;3.17;;
10894;SDS011;5500;49.886;8.074;2022-08-25T02:57:16;5.33;;;3.00;;
10894;SDS011;5500;49.886;8.074;2022-08-25T02:59:45;6.90;;;2.67;;
10894;SDS011;5500;49.886;8.074;2022-08-25T03:02:13;5.00;;;2.90;;
10894;SDS011;5500;49.886;8.074;2022-08-25T03:04:42;6.77;;;3.37;;
10894;SDS011;5500;49.886;8.074;2022-08-25T03:07:09;5.23;;;3.00;;
10894;SDS011;5500;49.886;8.074;2022-08-25T03:09:37;5.30;;;2.87;;
10894;SDS011;5500;49.886;8.074;2022-08-25T03:12:05;5.30;;;3.13;;
10894;SDS011;5500;49.886;8.074;2022-08-25T03:14:34;8.77;;;3.50;;
10894;SDS011;5500;49.886;8.074;2022-08-25T03:17:04;4.53;;;3.30;;
10894;SDS011;5500;49.886;8.074;2022-08-25T03:19:34;6.97;;;3.00;;
10894;SDS011;5500;49.886;8.074;2022-08-25T03:22:02;4.13;;;3.30;;
10894;SDS011;5500;49.886;8.074;2022-08-25T03:24:29;5.03;;;3.57;;
10894;SDS011;5500;49.886;8.074;2022-08-25T03:26:57;4.87;;;3.23;;
10894;SDS011;5500;49.886;8.074;2022-08-25T03:29:27;6.53;;;3.50;;
10894;SDS011;5500;49.886;8.074;2022-08-25T03:31:57;4.73;;;3.00;;
10894;SDS011;5500;49.886;8.074;2022-08-25T03:34:28;3.50;;;3.00;;
10894;SDS011;5500;49.886;8.074;2022-08-25T03:36:56;4.13;;;3.63;;
10894;SDS011;5500;49.886;8.074;2022-08-25T03:39:25;5.53;;;3.00;;
10894;SDS011;5500;49.886;8.074;2022-08-25T03:41:53;3.47;;;3.17;;
10894;SDS011;5500;49.886;8.074;2022-08-25T03:44:21;3.80;;;3.37;;
10894;SDS011;5500;49.886;8.074;2022-08-25T03:46:50;3.97;;;3.17;;
10894;SDS011;5500;49.886;8.074;2022-08-25T03:49:19;4.47;;;4.07;;
10894;SDS011;5500;49.886;8.074;2022-08-25T03:51:50;4.87;;;3.47;;
10894;SDS011;5500;49.886;8.074;2022-08-25T03:54:20;3.77;;;3.47;;
10894;SDS011;5500;49.886;8.074;2022-08-25T03:56:50;5.83;;;3.47;;
10894;SDS011;5500;49.886;8.074;2022-08-25T03:59:18;4.10;;;3.70;;
10894;SDS011;5500;49.886;8.074;2022-08-25T04:01:46;5.23;;;3.70;;
10894;SDS011;5500;49.886;8.074;2022-08-25T04:04:20;6.13;;;4.00;;
10894;SDS011;5500;49.886;8.074;2022-08-25T04:06:49;6.83;;;3.57;;
10894;SDS011;5500;49.886;8.074;2022-08-25T04:09:18;3.63;;;3.33;;
10894;SDS011;5500;49.886;8.074;2022-08-25T04:11:45;6.43;;;4.10;;
10894;SDS011;5500;49.886;8.074;2022-08-25T04:14:18;4.60;;;3.33;;
10894;SDS011;5500;49.886;8.074;2022-08-25T04:16:47;4.03;;;3.47;;
10894;SDS011;5500;49.886;8.074;2022-08-25T04:19:15;8.10;;;4.20;;
10894;SDS011;5500;49.886;8.074;2022-08-25T04:21:42;5.80;;;4.17;;
10894;SDS011;5500;49.886;8.074;2022-08-25T04:24:12;7.47;;;3.93;;
10894;SDS011;5500;49.886;8.074;2022-08-25T04:26:40;5.67;;;4.20;;
10894;SDS011;5500;49.886;8.074;2022-08-25T04:29:10;5.63;;;3.90;;
10894;SDS011;5500;49.886;8.074;2022-08-25T04:31:42;6.23;;;4.27;;
10894;SDS011;5500;49.886;8.074;2022-08-25T04:34:13;3.57;;;3.10;;
10894;SDS011;5500;49.886;8.074;2022-08-25T04:36:55;6.47;;;4.20;;
10894;SDS011;5500;49.886;8.074;2022-08-25T04:39:24;6.00;;;3.47;;
10894;SDS011;5500;49.886;8.074;2022-08-25T04:41:51;6.07;;;3.97;;
10894;SDS011;5500;49.886;8.074;2022-08-25T04:44:19;5.10;;;3.67;;
10894;SDS011;5500;49.886;8.074;2022-08-25T04:46:47;5.50;;;4.17;;
10894;SDS011;5500;49.886;8.074;2022-08-25T04:49:15;6.50;;;3.67;;
10894;SDS011;5500;49.886;8.074;2022-08-25T04:51:43;8.57;;;4.47;;
10894;SDS011;5500;49.886;8.074;2022-08-25T04:54:11;4.60;;;3.70;;
10894;SDS011;5500;49.886;8.074;2022-08-25T04:56:43;6.17;;;3.83;;
10894;SDS011;5500;49.886;8.074;2022-08-25T04:59:12;4.73;;;3.93;;
10894;SDS011;5500;49.886;8.074;2022-08-25T05:01:40;6.17;;;4.27;;
10894;SDS011;5500;49.886;8.074;2022-08-25T05:04:10;4.30;;;3.67;;
10894;SDS011;5500;49.886;8.074;2022-08-25T05:06:53;6.07;;;3.77;;
10894;SDS011;5500;49.886;8.074;2022-08-25T05:09:21;6.17;;;3.77;;
10894;SDS011;5500;49.886;8.074;2022-08-25T05:11:51;5.57;;;3.83;;
10894;SDS011;5500;49.886;8.074;2022-08-25T05:14:20;10.50;;;4.73;;
10894;SDS011;5500;49.886;8.074;2022-08-25T05:16:52;9.50;;;4.07;;
10894;SDS011;5500;49.886;8.074;2022-08-25T05:19:20;6.53;;;4.23;;
10894;SDS011;5500;49.886;8.074;2022-08-25T05:21:49;4.60;;;3.87;;
10894;SDS011;5500;49.886;8.074;2022-08-25T05:24:17;7.77;;;4.53;;
10894;SDS011;5500;49.886;8.074;2022-08-25T05:26:44;5.73;;;4.40;;
10894;SDS011;5500;49.886;8.074;2022-08-25T05:29:14;6.10;;;4.03;;
10894;SDS011;5500;49.886;8.074;2022-08-25T05:31:41;4.80;;;4.30;;
10894;SDS011;5500;49.886;8.074;2022-08-25T05:34:16;6.60;;;4.43;;
10894;SDS011;5500;49.886;8.074;2022-08-25T05:36:44;7.70;;;4.43;;
10894;SDS011;5500;49.886;8.074;2022-08-25T05:39:12;6.13;;;4.13;;
10894;SDS011;5500;49.886;8.074;2022-08-25T05:41:40;5.80;;;4.40;;
10894;SDS011;5500;49.886;8.074;2022-08-25T05:44:08;6.37;;;4.20;;
10894;SDS011;5500;49.886;8.074;2022-08-25T05:46:38;5.63;;;4.30;;
10894;SDS011;5500;49.886;8.074;2022-08-25T05:49:06;7.03;;;4.23;;
10894;SDS011;5500;49.886;8.074;2022-08-25T05:51:35;6.27;;;4.87;;
10894;SDS011;5500;49.886;8.074;2022-08-25T05:54:03;5.53;;;4.63;;
10894;SDS011;5500;49.886;8.074;2022-08-25T05:56:31;6.10;;;4.20;;
10894;SDS011;5500;49.886;8.074;2022-08-25T05:58:58;6.67;;;4.50;;
10894;SDS011;5500;49.886;8.074;2022-08-25T06:01:31;5.47;;;4.70;;
10894;SDS011;5500;49.886;8.074;2022-08-25T06:04:17;5.00;;;4.40;;
10894;SDS011;5500;49.886;8.074;2022-08-25T06:06:45;6.17;;;4.43;;
10894;SDS011;5500;49.886;8.074;2022-08-25T06:09:14;5.10;;;4.60;;
10894;SDS011;5500;49.886;8.074;2022-08-25T06:11:41;5.53;;;4.47;;
10894;SDS011;5500;49.886;8.074;2022-08-25T06:14:10;6.17;;;4.67;;
10894;SDS011;5500;49.886;8.074;2022-08-25T06:16:37;7.40;;;4.90;;
10894;SDS011;5500;49.886;8.074;2022-08-25T06:19:06;9.73;;;4.50;;
10894;SDS011;5500;49.886;8.074;2022-08-25T06:21:36;6.93;;;4.93;;
10894;SDS011;5500;49.886;8.074;2022-08-25T06:24:04;8.00;;;5.57;;
10894;SDS011;5500;49.886;8.074;2022-08-25T06:26:37;5.50;;;4.50;;
10894;SDS011;5500;49.886;8.074;2022-08-25T06:29:05;5.93;;;4.43;;
10894;SDS011;5500;49.886;8.074;2022-08-25T06:31:33;8.70;;;4.37;;
10894;SDS011;5500;49.886;8.074;2022-08-25T06:34:00;6.43;;;4.53;;
10894;SDS011;5500;49.886;8.074;2022-08-25T06:36:28;10.30;;;5.23;;
10894;SDS011;5500;49.886;8.074;2022-08-25T06:38:57;11.30;;;4.90;;
10894;SDS011;5500;49.886;8.074;2022-08-25T06:41:25;8.77;;;5.50;;
10894;SDS011;5500;49.886;8.074;2022-08-25T06:44:02;9.23;;;5.33;;
10894;SDS011;5500;49.886;8.074;2022-08-25T06:46:31;5.37;;;4.87;;
10894;SDS011;5500;49.886;8.074;2022-08-25T06:49:02;6.30;;;4.63;;
10894;SDS011;5500;49.886;8.074;2022-08-25T06:51:30;6.67;;;5.10;;
10894;SDS011;5500;49.886;8.074;2022-08-25T06:54:01;8.83;;;5.13;;
10894;SDS011;5500;49.886;8.074;2022-08-25T06:56:30;5.80;;;5.27;;
10894;SDS011;5500;49.886;8.074;2022-08-25T06:58:59;11.30;;;5.47;;
10894;SDS011;5500;49.886;8.074;2022-08-25T07:01:27;6.97;;;4.93;;
10894;SDS011;5500;49.886;8.074;2022-08-25T07:03:58;7.77;;;4.80;;
10894;SDS011;5500;49.886;8.074;2022-08-25T07:06:28;6.03;;;5.40;;
10894;SDS011;5500;49.886;8.074;2022-08-25T07:08:58;8.97;;;5.60;;
10894;SDS011;5500;49.886;8.074;2022-08-25T07:11:27;7.77;;;5.30;;
10894;SDS011;5500;49.886;8.074;2022-08-25T07:13:59;7.13;;;5.57;;
10894;SDS011;5500;49.886;8.074;2022-08-25T07:16:28;6.33;;;5.73;;
10894;SDS011;5500;49.886;8.074;2022-08-25T07:18:57;7.67;;;5.07;;
10894;SDS011;5500;49.886;8.074;2022-08-25T07:21:26;6.43;;;5.23;;
10894;SDS011;5500;49.886;8.074;2022-08-25T07:24:01;9.10;;;5.13;;
10894;SDS011;5500;49.886;8.074;2022-08-25T07:26:33;6.13;;;5.53;;
10894;SDS011;5500;49.886;8.074;2022-08-25T07:29:05;7.23;;;5.80;;
10894;SDS011;5500;49.886;8.074;2022-08-25T07:31:34;8.30;;;6.10;;
10894;SDS011;5500;49.886;8.074;2022-08-25T07:34:03;7.37;;;5.93;;
10894;SDS011;5500;49.886;8.074;2022-08-25T07:36:48;11.83;;;5.67;;
10894;SDS011;5500;49.886;8.074;2022-08-25T07:39:15;7.43;;;5.80;;
10894;SDS011;5500;49.886;8.074;2022-08-25T07:41:48;8.03;;;5.47;;
10894;SDS011;5500;49.886;8.074;2022-08-25T07:44:17;5.83;;;5.33;;
10894;SDS011;5500;49.886;8.074;2022-08-25T07:46:45;8.00;;;5.90;;
10894;SDS011;5500;49.886;8.074;2022-08-25T07:49:15;10.40;;;5.83;;
10894;SDS011;5500;49.886;8.074;2022-08-25T07:51:48;9.10;;;5.90;;
10894;SDS011;5500;49.886;8.074;2022-08-25T07:54:31;6.93;;;6.00;;
10894;SDS011;5500;49.886;8.074;2022-08-25T07:57:01;7.60;;;5.70;;
10894;SDS011;5500;49.886;8.074;2022-08-25T07:59:30;6.03;;;5.40;;
10894;SDS011;5500;49.886;8.074;2022-08-25T08:02:05;6.37;;;5.77;;
10894;SDS011;5500;49.886;8.074;2022-08-25T08:04:34;6.97;;;5.43;;
10894;SDS011;5500;49.886;8.074;2022-08-25T08:07:02;13.00;;;5.97;;
10894;SDS011;5500;49.886;8.074;2022-08-25T08:09:37;8.43;;;6.30;;
10894;SDS011;5500;49.886;8.074;2022-08-25T08:12:06;7.07;;;5.33;;
10894;SDS011;5500;49.886;8.074;2022-08-25T08:14:34;6.53;;;5.50;;
10894;SDS011;5500;49.886;8.074;2022-08-25T08:17:10;8.90;;;5.63;;
10894;SDS011;5500;49.886;8.074;2022-08-25T08:19:38;7.10;;;5.40;;
10894;SDS011;5500;49.886;8.074;2022-08-25T08:22:11;9.70;;;5.50;;
10894;SDS011;5500;49.886;8.074;2022-08-25T08:24:41;6.40;;;5.80;;
10894;SDS011;5500;49.886;8.074;2022-08-25T08:27:21;6.83;;;6.03;;
10894;SDS011;5500;49.886;8.074;2022-08-25T08:29:49;6.57;;;5.43;;
10894;SDS011;5500;49.886;8.074;2022-08-25T08:32:17;5.87;;;5.33;;
10894;SDS011;5500;49.886;8.074;2022-08-25T08:34:50;6.03;;;5.50;;
10894;SDS011;5500;49.886;8.074;2022-08-25T08:37:18;5.83;;;5.13;;
10894;SDS011;5500;49.886;8.074;2022-08-25T08:39:48;9.77;;;5.80;;
10894;SDS011;5500;49.886;8.074;2022-08-25T08:42:25;5.83;;;5.33;;
10894;SDS011;5500;49.886;8.074;2022-08-25T08:45:05;7.50;;;5.40;;
10894;SDS011;5500;49.886;8.074;2022-08-25T08:47:47;6.07;;;5.50;;
10894;SDS011;5500;49.886;8.074;2022-08-25T08:50:25;5.53;;;5.03;;
10894;SDS011;5500;49.886;8.074;2022-08-25T08:53:00;5.80;;;5.17;;
10894;SDS011;5500;49.886;8.074;2022-08-25T08:55:34;6.03;;;5.17;;
10894;SDS011;5500;49.886;8.074;2022-08-25T08:58:07;7.37;;;5.67;;
10894;SDS011;5500;49.886;8.074;2022-08-25T09:00:41;6.70;;;5.63;;
10894;SDS011;5500;49.886;8.074;2022-08-25T09:03:22;5.90;;;5.30;;
10894;SDS011;5500;49.886;8.074;2022-08-25T09:05:55;6.53;;;5.97;;
10894;SDS011;5500;49.886;8.074;2022-08-25T09:08:28;5.47;;;5.07;;
10894;SDS011;5500;49.886;8.074;2022-08-25T09:11:00;6.20;;;5.60;;
10894;SDS011;5500;49.886;8.074;2022-08-25T09:13:40;8.03;;;5.70;;
10894;SDS011;5500;49.886;8.074;2022-08-25T09:16:17;5.60;;;5.03;;
10894;SDS011;5500;49.886;8.074;2022-08-25T09:19:08;5.63;;;4.90;;
10894;SDS011;5500;49.886;8.074;2022-08-25T09:21:50;7.17;;;4.90;;
10894;SDS011;5500;49.886;8.074;2022-08-25T09:24:25;5.40;;;4.57;;
10894;SDS011;5500;49.886;8.074;2022-08-25T09:27:04;4.93;;;4.53;;
10894;SDS011;5500;49.886;8.074;2022-08-25T09:29:41;5.32;;;4.82;;
10894;SDS011;5500;49.886;8.074;2022-08-25T09:32:19;7.32;;;5.07;;
10894;SDS011;5500;49.886;8.074;2022-08-25T09:34:56;4.85;;;4.47;;
10894;SDS011;5500;49.886;8.074;2022-08-25T09:37:25;5.57;;;5.07;;
10894;SDS011;5500;49.886;8.074;2022-08-25T09:39:53;5.30;;;4.82;;
10894;SDS011;5500;49.886;8.074;2022-08-25T09:42:27;8.57;;;4.90;;
10894;SDS011;5500;49.886;8.074;2022-08-25T09:45:17;5.00;;;4.47;;
10894;SDS011;5500;49.886;8.074;2022-08-25T09:47:58;4.93;;;4.43;;
10894;SDS011;5500;49.886;8.074;2022-08-25T09:50:28;5.50;;;4.32;;
10894;SDS011;5500;49.886;8.074;2022-08-25T09:53:10;4.65;;;4.20;;
10894;SDS011;5500;49.886;8.074;2022-08-25T09:55:45;5.22;;;4.55;;
10894;SDS011;5500;49.886;8.074;2022-08-25T09:58:15;6.82;;;4.90;;
10894;SDS011;5500;49.886;8.074;2022-08-25T10:01:00;4.65;;;4.25;;
10894;SDS011;5500;49.886;8.074;2022-08-25T10:03:29;4.63;;;4.20;;
10894;SDS011;5500;49.886;8.074;2022-08-25T10:06:03;4.78;;;4.30;;
10894;SDS011;5500;49.886;8.074;2022-08-25T10:08:33;7.00;;;4.82;;
10894;SDS011;5500;49.886;8.074;2022-08-25T10:11:05;5.78;;;5.18;;
10894;SDS011;5500;49.886;8.074;2022-08-25T10:13:37;5.60;;;4.93;;
10894;SDS011;5500;49.886;8.074;2022-08-25T10:16:10;5.78;;;5.10;;
10894;SDS011;5500;49.886;8.074;2022-08-25T10:19:00;5.47;;;4.93;;
10894;SDS011;5500;49.886;8.074;2022-08-25T10:21:33;5.57;;;5.00;;
10894;SDS011;5500;49.886;8.074;2022-08-25T10:24:02;6.28;;;4.80;;
10894;SDS011;5500;49.886;8.074;2022-08-25T10:26:33;5.40;;;4.30;;
10894;SDS011;5500;49.886;8.074;2022-08-25T10:29:11;5.40;;;4.90;;
10894;SDS011;5500;49.886;8.074;2022-08-25T10:31:49;5.15;;;3.72;;
10894;SDS011;5500;49.886;8.074;2022-08-25T10:34:24;5.20;;;4.38;;
10894;SDS011;5500;49.886;8.074;2022-08-25T10:37:03;3.90;;;3.60;;
10894;SDS011;5500;49.886;8.074;2022-08-25T10:39:37;3.80;;;3.50;;
10894;SDS011;5500;49.886;8.074;2022-08-25T10:42:10;5.97;;;4.40;;
10894;SDS011;5500;49.886;8.074;2022-08-25T10:45:04;4.07;;;3.67;;
10894;SDS011;5500;49.886;8.074;2022-08-25T10:48:08;4.45;;;4.05;;
10894;SDS011;5500;49.886;8.074;2022-08-25T10:50:54;8.52;;;3.90;;
10894;SDS011;5500;49.886;8.074;2022-08-25T10:53:27;4.10;;;3.80;;
10894;SDS011;5500;49.886;8.074;2022-08-25T10:56:02;6.53;;;3.67;;
10894;SDS011;5500;49.886;8.074;2022-08-25T11:01:39;4.70;;;3.95;;
10894;SDS011;5500;49.886;8.074;2022-08-25T11:04:20;4.85;;;4.18;;
10894;SDS011;5500;49.886;8.074;2022-08-25T11:06:54;4.82;;;3.55;;
10894;SDS011;5500;49.886;8.074;2022-08-25T11:09:26;4.53;;;4.10;;
10894;SDS011;5500;49.886;8.074;2022-08-25T11:11:56;6.03;;;3.80;;
10894;SDS011;5500;49.886;8.074;2022-08-25T11:14:28;4.43;;;4.03;;
10894;SDS011;5500;49.886;8.074;2022-08-25T11:17:00;4.20;;;3.80;;
10894;SDS011;5500;49.886;8.074;2022-08-25T11:19:34;5.20;;;3.97;;
10894;SDS011;5500;49.886;8.074;2022-08-25T11:22:05;4.10;;;3.63;;
10894;SDS011;5500;49.886;8.074;2022-08-25T11:24:43;9.25;;;4.30;;
10894;SDS011;5500;49.886;8.074;2022-08-25T11:27:20;4.85;;;3.80;;
10894;SDS011;5500;49.886;8.074;2022-08-25T11:29:52;3.63;;;3.33;;
10894;SDS011;5500;49.886;8.074;2022-08-25T11:32:25;4.30;;;4.00;;
10894;SDS011;5500;49.886;8.074;2022-08-25T11:35:00;4.40;;;4.00;;
10894;SDS011;5500;49.886;8.074;2022-08-25T11:37:30;4.13;;;3.83;;
10894;SDS011;5500;49.886;8.074;2022-08-25T11:40:05;5.30;;;3.83;;
10894;SDS011;5500;49.886;8.074;2022-08-25T11:42:43;4.15;;;3.85;;
10894;SDS011;5500;49.886;8.074;2022-08-25T11:45:22;4.97;;;3.40;;
10894;SDS011;5500;49.886;8.074;2022-08-25T11:48:04;3.90;;;3.60;;
10894;SDS011;5500;49.886;8.074;2022-08-25T11:50:55;4.40;;;3.42;;
10894;SDS011;5500;49.886;8.074;2022-08-25T11:53:26;3.80;;;3.33;;
10894;SDS011;5500;49.886;8.074;2022-08-25T11:55:56;4.45;;;3.47;;
10894;SDS011;5500;49.886;8.074;2022-08-25T11:58:29;5.18;;;3.83;;
10894;SDS011;5500;49.886;8.074;2022-08-25T12:01:00;3.15;;;2.85;;
10894;SDS011;5500;49.886;8.074;2022-08-25T12:06:22;4.88;;;3.65;;
10894;SDS011;5500;49.886;8.074;2022-08-25T12:11:46;4.30;;;3.90;;
10894;SDS011;5500;49.886;8.074;2022-08-25T12:14:32;4.43;;;4.03;;
10894;SDS011;5500;49.886;8.074;2022-08-25T12:17:10;4.03;;;3.63;;
10894;SDS011;5500;49.886;8.074;2022-08-25T12:19:48;3.97;;;3.55;;
10894;SDS011;5500;49.886;8.074;2022-08-25T12:22:42;5.05;;;4.10;;
10894;SDS011;5500;49.886;8.074;2022-08-25T12:25:28;3.90;;;3.60;;
10894;SDS011;5500;49.886;8.074;2022-08-25T12:31:05;5.60;;;3.92;;
10894;SDS011;5500;49.886;8.074;2022-08-25T12:33:40;5.22;;;4.18;;
10894;SDS011;5500;49.886;8.074;2022-08-25T12:36:24;3.95;;;3.65;;
10894;SDS011;5500;49.886;8.074;2022-08-25T12:38:54;4.60;;;4.20;;
10894;SDS011;5500;49.886;8.074;2022-08-25T12:41:36;4.30;;;4.00;;
10894;SDS011;5500;49.886;8.074;2022-08-25T12:44:32;5.03;;;4.20;;
10894;SDS011;5500;49.886;8.074;2022-08-25T12:47:06;5.55;;;4.20;;
10894;SDS011;5500;49.886;8.074;2022-08-25T12:49:39;5.47;;;4.38;;
10894;SDS011;5500;49.886;8.074;2022-08-25T12:52:09;4.28;;;3.88;;
10894;SDS011;5500;49.886;8.074;2022-08-25T12:54:45;4.47;;;4.07;;
10894;SDS011;5500;49.886;8.074;2022-08-25T12:57:36;4.20;;;3.80;;
10894;SDS011;5500;49.886;8.074;2022-08-25T13:00:14;4.10;;;3.80;;
10894;SDS011;5500;49.886;8.074;2022-08-25T13:03:02;4.97;;;4.10;;
10894;SDS011;5500;49.886;8.074;2022-08-25T13:05:41;4.35;;;3.92;;
10894;SDS011;5500;49.886;8.074;2022-08-25T13:08:21;4.72;;;3.40;;
10894;SDS011;5500;49.886;8.074;2022-08-25T13:11:06;5.43;;;4.30;;
10894;SDS011;5500;49.886;8.074;2022-08-25T13:13:37;4.20;;;3.85;;
10894;SDS011;5500;49.886;8.074;2022-08-25T13:16:14;4.65;;;4.20;;
10894;SDS011;5500;49.886;8.074;2022-08-25T13:18:43;4.78;;;3.85;;
10894;SDS011;5500;49.886;8.074;2022-08-25T13:21:17;4.43;;;3.78;;
10894;SDS011;5500;49.886;8.074;2022-08-25T13:23:47;5.28;;;3.67;;
10894;SDS011;5500;49.886;8.074;2022-08-25T13:26:22;5.22;;;3.78;;
10894;SDS011;5500;49.886;8.074;2022-08-25T13:28:52;4.05;;;3.70;;
10894;SDS011;5500;49.886;8.074;2022-08-25T13:31:24;3.67;;;3.38;;
10894;SDS011;5500;49.886;8.074;2022-08-25T13:33:55;6.72;;;3.83;;
10894;SDS011;5500;49.886;8.074;2022-08-25T13:36:25;4.35;;;3.78;;
10894;SDS011;5500;49.886;8.074;2022-08-25T13:39:23;4.13;;;3.78;;
10894;SDS011;5500;49.886;8.074;2022-08-25T13:42:14;3.72;;;3.40;;
10894;SDS011;5500;49.886;8.074;2022-08-25T13:44:43;3.97;;;3.63;;
10894;SDS011;5500;49.886;8.074;2022-08-25T13:47:30;3.75;;;3.40;;
10894;SDS011;5500;49.886;8.074;2022-08-25T13:50:13;4.00;;;3.60;;
10894;SDS011;5500;49.886;8.074;2022-08-25T13:52:52;4.10;;;3.80;;
10894;SDS011;5500;49.886;8.074;2022-08-25T13:55:21;4.28;;;3.80;;
10894;SDS011;5500;49.886;8.074;2022-08-25T13:57:54;3.83;;;3.53;;
10894;SDS011;5500;49.886;8.074;2022-08-25T14:00:27;6.80;;;4.10;;
10894;SDS011;5500;49.886;8.074;2022-08-25T14:02:58;4.28;;;3.88;;
10894;SDS011;5500;49.886;8.074;2022-08-25T14:05:33;4.15;;;3.58;;
10894;SDS011;5500;49.886;8.074;2022-08-25T14:08:04;5.88;;;3.58;;
10894;SDS011;5500;49.886;8.074;2022-08-25T14:10:52;3.80;;;3.50;;
10894;SDS011;5500;49.886;8.074;2022-08-25T14:13:31;3.83;;;3.47;;
10894;SDS011;5500;49.886;8.074;2022-08-25T14:16:06;5.85;;;4.10;;
10894;SDS011;5500;49.886;8.074;2022-08-25T14:18:36;4.03;;;3.40;;
10894;SDS011;5500;49.886;8.074;2022-08-25T14:21:07;4.95;;;3.75;;
10894;SDS011;5500;49.886;8.074;2022-08-25T14:23:36;3.80;;;3.50;;
10894;SDS011;5500;49.886;8.074;2022-08-25T14:26:05;4.32;;;3.60;;
10894;SDS011;5500;49.886;8.074;2022-08-25T14:28:34;3.85;;;3.42;;
10894;SDS011;5500;49.886;8.074;2022-08-25T14:31:04;3.95;;;3.63;;
10894;SDS011;5500;49.886;8.074;2022-08-25T14:33:35;5.03;;;3.45;;
10894;SDS011;5500;49.886;8.074;2022-08-25T14:36:05;3.63;;;3.33;;
10894;SDS011;5500;49.886;8.074;2022-08-25T14:38:33;3.75;;;3.33;;
10894;SDS011;5500;49.886;8.074;2022-08-25T14:41:04;4.50;;;3.50;;
10894;SDS011;5500;49.886;8.074;2022-08-25T14:43:38;3.80;;;3.50;;
10894;SDS011;5500;49.886;8.074;2022-08-25T14:46:08;4.07;;;3.78;;
10894;SDS011;5500;49.886;8.074;2022-08-25T14:48:45;4.10;;;3.70;;
10894;SDS011;5500;49.886;8.074;2022-08-25T14:51:15;4.28;;;3.38;;
10894;SDS011;5500;49.886;8.074;2022-08-25T14:53:43;3.83;;;3.53;;
10894;SDS011;5500;49.886;8.074;2022-08-25T14:56:10;3.80;;;3.50;;
10894;SDS011;5500;49.886;8.074;2022-08-25T14:58:40;4.43;;;3.80;;
10894;SDS011;5500;49.886;8.074;2022-08-25T15:01:19;3.63;;;3.38;;
10894;SDS011;5500;49.886;8.074;2022-08-25T15:03:56;4.30;;;3.40;;
10894;SDS011;5500;49.886;8.074;2022-08-25T15:06:25;3.92;;;3.55;;
10894;SDS011;5500;49.886;8.074;2022-08-25T15:08:53;4.57;;;3.55;;
10894;SDS011;5500;49.886;8.074;2022-08-25T15:11:37;3.92;;;3.63;;
10894;SDS011;5500;49.886;8.074;2022-08-25T15:14:09;3.95;;;3.55;;
10894;SDS011;5500;49.886;8.074;2022-08-25T15:16:38;6.10;;;3.97;;
10894;SDS011;5500;49.886;8.074;2022-08-25T15:19:09;4.13;;;3.72;;
10894;SDS011;5500;49.886;8.074;2022-08-25T15:21:41;4.32;;;3.63;;
10894;SDS011;5500;49.886;8.074;2022-08-25T15:24:09;4.13;;;3.80;;
10894;SDS011;5500;49.886;8.074;2022-08-25T15:26:43;3.83;;;3.45;;
10894;SDS011;5500;49.886;8.074;2022-08-25T15:29:15;3.95;;;3.60;;
10894;SDS011;5500;49.886;8.074;2022-08-25T15:31:43;4.13;;;3.72;;
10894;SDS011;5500;49.886;8.074;2022-08-25T15:34:11;4.22;;;3.58;;
10894;SDS011;5500;49.886;8.074;2022-08-25T15:36:39;3.90;;;3.45;;
10894;SDS011;5500;49.886;8.074;2022-08-25T15:39:08;4.13;;;3.80;;
10894;SDS011;5500;49.886;8.074;2022-08-25T15:41:36;3.90;;;3.55;;